sensor_id;sensor_type;location;lat;lon;timestamp;P1;durP1;ratioP1;P2;durP2;ratioP2
40745;SDS011;26454;51.164;4.488;2023-01-29T00:01:31;71.45;;;44.50;;
40745;SDS011;26454;51.164;4.488;2023-01-29T00:03:57;74.60;;;43.40;;
40745;SDS011;26454;51.164;4.488;2023-01-29T00:06:23;69.55;;;42.90;;
40745;SDS011;26454;51.164;4.488;2023-01-29T00:08:49;74.07;;;45.38;;
40745;SDS011;26454;51.164;4.488;2023-01-29T00:11:15;73.85;;;44.75;;
40745;SDS011;26454;51.164;4.488;2023-01-29T00:13:43;77.15;;;49.40;;
40745;SDS011;26454;51.164;4.488;2023-01-29T00:16:09;72.90;;;44.30;;
40745;SDS011;26454;51.164;4.488;2023-01-29T00:18:37;77.55;;;46.72;;
40745;SDS011;26454;51.164;4.488;2023-01-29T00:21:03;74.07;;;45.65;;
40745;SDS011;26454;51.164;4.488;2023-01-29T00:23:34;73.60;;;46.17;;
40745;SDS011;26454;51.164;4.488;2023-01-29T00:26:00;74.28;;;46.20;;
40745;SDS011;26454;51.164;4.488;2023-01-29T00:28:26;73.18;;;44.83;;
40745;SDS011;26454;51.164;4.488;2023-01-29T00:30:53;74.70;;;44.10;;
40745;SDS011;26454;51.164;4.488;2023-01-29T00:33:19;83.00;;;47.63;;
40745;SDS011;26454;51.164;4.488;2023-01-29T00:35:45;75.07;;;44.47;;
40745;SDS011;26454;51.164;4.488;2023-01-29T00:38:11;83.97;;;48.33;;
40745;SDS011;26454;51.164;4.488;2023-01-29T00:40:37;75.05;;;44.13;;
40745;SDS011;26454;51.164;4.488;2023-01-29T00:43:24;76.55;;;45.35;;
40745;SDS011;26454;51.164;4.488;2023-01-29T00:46:00;73.45;;;44.72;;
40745;SDS011;26454;51.164;4.488;2023-01-29T00:48:27;74.72;;;45.47;;
40745;SDS011;26454;51.164;4.488;2023-01-29T00:50:53;74.95;;;43.63;;
40745;SDS011;26454;51.164;4.488;2023-01-29T00:53:20;77.10;;;45.10;;
40745;SDS011;26454;51.164;4.488;2023-01-29T00:55:46;85.72;;;49.10;;
40745;SDS011;26454;51.164;4.488;2023-01-29T00:58:12;72.55;;;41.42;;
40745;SDS011;26454;51.164;4.488;2023-01-29T01:00:39;76.47;;;42.58;;
40745;SDS011;26454;51.164;4.488;2023-01-29T01:03:05;79.32;;;44.83;;
40745;SDS011;26454;51.164;4.488;2023-01-29T01:05:31;80.72;;;43.28;;
40745;SDS011;26454;51.164;4.488;2023-01-29T01:07:57;84.35;;;46.75;;
40745;SDS011;26454;51.164;4.488;2023-01-29T01:10:25;72.22;;;43.58;;
40745;SDS011;26454;51.164;4.488;2023-01-29T01:12:54;72.35;;;42.13;;
40745;SDS011;26454;51.164;4.488;2023-01-29T01:15:21;74.23;;;44.30;;
40745;SDS011;26454;51.164;4.488;2023-01-29T01:17:50;72.03;;;43.00;;
40745;SDS011;26454;51.164;4.488;2023-01-29T01:20:17;69.35;;;40.67;;
40745;SDS011;26454;51.164;4.488;2023-01-29T01:22:43;72.55;;;43.15;;
40745;SDS011;26454;51.164;4.488;2023-01-29T01:25:09;68.80;;;42.05;;
40745;SDS011;26454;51.164;4.488;2023-01-29T01:27:35;73.13;;;42.80;;
40745;SDS011;26454;51.164;4.488;2023-01-29T01:30:05;68.43;;;42.65;;
40745;SDS011;26454;51.164;4.488;2023-01-29T01:32:32;74.82;;;44.70;;
40745;SDS011;26454;51.164;4.488;2023-01-29T01:34:58;72.32;;;42.35;;
40745;SDS011;26454;51.164;4.488;2023-01-29T01:37:24;74.28;;;43.33;;
40745;SDS011;26454;51.164;4.488;2023-01-29T01:39:50;69.55;;;40.38;;
40745;SDS011;26454;51.164;4.488;2023-01-29T01:42:22;65.53;;;39.65;;
40745;SDS011;26454;51.164;4.488;2023-01-29T01:44:53;75.13;;;43.45;;
40745;SDS011;26454;51.164;4.488;2023-01-29T01:47:23;76.97;;;44.83;;
40745;SDS011;26454;51.164;4.488;2023-01-29T01:49:51;72.25;;;41.42;;
40745;SDS011;26454;51.164;4.488;2023-01-29T01:52:18;71.07;;;41.38;;
40745;SDS011;26454;51.164;4.488;2023-01-29T01:54:44;78.60;;;45.22;;
40745;SDS011;26454;51.164;4.488;2023-01-29T01:57:13;83.25;;;45.25;;
40745;SDS011;26454;51.164;4.488;2023-01-29T01:59:41;73.50;;;42.85;;
40745;SDS011;26454;51.164;4.488;2023-01-29T02:02:08;69.57;;;42.20;;
40745;SDS011;26454;51.164;4.488;2023-01-29T02:04:46;81.95;;;46.10;;
40745;SDS011;26454;51.164;4.488;2023-01-29T02:07:23;72.47;;;42.90;;
40745;SDS011;26454;51.164;4.488;2023-01-29T02:10:02;70.82;;;43.60;;
40745;SDS011;26454;51.164;4.488;2023-01-29T02:12:30;68.70;;;43.10;;
40745;SDS011;26454;51.164;4.488;2023-01-29T02:14:57;74.72;;;44.63;;
40745;SDS011;26454;51.164;4.488;2023-01-29T02:17:23;71.65;;;42.47;;
40745;SDS011;26454;51.164;4.488;2023-01-29T02:19:53;75.63;;;43.95;;
40745;SDS011;26454;51.164;4.488;2023-01-29T02:30:32;75.07;;;42.53;;
40745;SDS011;26454;51.164;4.488;2023-01-29T02:33:04;70.90;;;42.00;;
40745;SDS011;26454;51.164;4.488;2023-01-29T02:35:37;78.00;;;46.45;;
40745;SDS011;26454;51.164;4.488;2023-01-29T02:40:55;73.40;;;42.85;;
40745;SDS011;26454;51.164;4.488;2023-01-29T02:43:27;70.68;;;40.28;;
40745;SDS011;26454;51.164;4.488;2023-01-29T02:45:59;70.55;;;43.10;;
40745;SDS011;26454;51.164;4.488;2023-01-29T02:48:28;61.25;;;39.10;;
40745;SDS011;26454;51.164;4.488;2023-01-29T02:50:57;71.22;;;39.92;;
40745;SDS011;26454;51.164;4.488;2023-01-29T02:53:28;68.53;;;39.42;;
40745;SDS011;26454;51.164;4.488;2023-01-29T02:55:59;63.20;;;37.90;;
40745;SDS011;26454;51.164;4.488;2023-01-29T02:58:36;67.20;;;37.92;;
40745;SDS011;26454;51.164;4.488;2023-01-29T03:01:08;63.00;;;36.25;;
40745;SDS011;26454;51.164;4.488;2023-01-29T03:03:39;67.85;;;40.05;;
40745;SDS011;26454;51.164;4.488;2023-01-29T03:06:15;67.05;;;38.42;;
40745;SDS011;26454;51.164;4.488;2023-01-29T03:08:47;59.88;;;35.58;;
40745;SDS011;26454;51.164;4.488;2023-01-29T03:11:15;68.95;;;38.88;;
40745;SDS011;26454;51.164;4.488;2023-01-29T03:13:48;62.67;;;37.63;;
40745;SDS011;26454;51.164;4.488;2023-01-29T03:16:17;61.45;;;37.35;;
40745;SDS011;26454;51.164;4.488;2023-01-29T03:18:47;65.70;;;38.05;;
40745;SDS011;26454;51.164;4.488;2023-01-29T03:21:17;61.22;;;35.05;;
40745;SDS011;26454;51.164;4.488;2023-01-29T03:23:54;58.67;;;34.63;;
40745;SDS011;26454;51.164;4.488;2023-01-29T03:26:31;59.03;;;33.30;;
40745;SDS011;26454;51.164;4.488;2023-01-29T03:29:07;61.08;;;35.08;;
40745;SDS011;26454;51.164;4.488;2023-01-29T03:31:45;58.10;;;34.92;;
40745;SDS011;26454;51.164;4.488;2023-01-29T03:34:23;55.88;;;34.95;;
40745;SDS011;26454;51.164;4.488;2023-01-29T03:37:02;61.22;;;35.78;;
40745;SDS011;26454;51.164;4.488;2023-01-29T03:39:31;60.85;;;34.72;;
40745;SDS011;26454;51.164;4.488;2023-01-29T03:44:42;61.33;;;36.33;;
40745;SDS011;26454;51.164;4.488;2023-01-29T03:47:22;60.97;;;34.03;;
40745;SDS011;26454;51.164;4.488;2023-01-29T03:49:53;61.85;;;35.75;;
40745;SDS011;26454;51.164;4.488;2023-01-29T03:55:09;60.95;;;33.80;;
40745;SDS011;26454;51.164;4.488;2023-01-29T03:57:38;62.03;;;34.80;;
40745;SDS011;26454;51.164;4.488;2023-01-29T04:00:10;58.63;;;35.00;;
40745;SDS011;26454;51.164;4.488;2023-01-29T04:02:46;62.95;;;35.28;;
40745;SDS011;26454;51.164;4.488;2023-01-29T04:05:15;56.20;;;33.35;;
40745;SDS011;26454;51.164;4.488;2023-01-29T04:07:43;60.90;;;35.53;;
40745;SDS011;26454;51.164;4.488;2023-01-29T04:10:11;66.78;;;37.70;;
40745;SDS011;26454;51.164;4.488;2023-01-29T04:12:40;60.63;;;35.90;;
40745;SDS011;26454;51.164;4.488;2023-01-29T04:15:08;58.08;;;34.75;;
40745;SDS011;26454;51.164;4.488;2023-01-29T04:17:38;66.22;;;38.20;;
40745;SDS011;26454;51.164;4.488;2023-01-29T04:20:05;61.95;;;36.03;;
40745;SDS011;26454;51.164;4.488;2023-01-29T04:22:32;64.20;;;36.58;;
40745;SDS011;26454;51.164;4.488;2023-01-29T04:24:59;65.95;;;38.55;;
40745;SDS011;26454;51.164;4.488;2023-01-29T04:33:00;56.97;;;33.78;;
40745;SDS011;26454;51.164;4.488;2023-01-29T04:35:31;66.32;;;36.20;;
40745;SDS011;26454;51.164;4.488;2023-01-29T04:38:05;62.92;;;35.40;;
40745;SDS011;26454;51.164;4.488;2023-01-29T04:40:36;61.05;;;34.53;;
40745;SDS011;26454;51.164;4.488;2023-01-29T04:43:08;63.63;;;35.10;;
40745;SDS011;26454;51.164;4.488;2023-01-29T04:48:27;66.03;;;38.40;;
40745;SDS011;26454;51.164;4.488;2023-01-29T04:50:57;66.75;;;40.13;;
40745;SDS011;26454;51.164;4.488;2023-01-29T04:53:34;65.60;;;37.15;;
40745;SDS011;26454;51.164;4.488;2023-01-29T04:56:05;63.35;;;36.10;;
40745;SDS011;26454;51.164;4.488;2023-01-29T04:58:35;63.65;;;35.95;;
40745;SDS011;26454;51.164;4.488;2023-01-29T05:01:04;65.38;;;36.95;;
40745;SDS011;26454;51.164;4.488;2023-01-29T05:03:31;64.32;;;37.05;;
40745;SDS011;26454;51.164;4.488;2023-01-29T05:05:59;61.40;;;35.72;;
40745;SDS011;26454;51.164;4.488;2023-01-29T05:08:25;61.33;;;34.65;;
40745;SDS011;26454;51.164;4.488;2023-01-29T05:10:53;67.20;;;36.53;;
40745;SDS011;26454;51.164;4.488;2023-01-29T05:13:20;59.95;;;34.53;;
40745;SDS011;26454;51.164;4.488;2023-01-29T05:15:48;64.90;;;37.05;;
40745;SDS011;26454;51.164;4.488;2023-01-29T05:18:16;61.33;;;34.90;;
40745;SDS011;26454;51.164;4.488;2023-01-29T05:20:43;64.93;;;37.35;;
40745;SDS011;26454;51.164;4.488;2023-01-29T05:23:14;62.85;;;35.28;;
40745;SDS011;26454;51.164;4.488;2023-01-29T05:25:40;63.97;;;36.67;;
40745;SDS011;26454;51.164;4.488;2023-01-29T05:28:07;64.50;;;35.80;;
40745;SDS011;26454;51.164;4.488;2023-01-29T05:30:43;59.03;;;34.83;;
40745;SDS011;26454;51.164;4.488;2023-01-29T05:33:11;61.58;;;35.20;;
40745;SDS011;26454;51.164;4.488;2023-01-29T05:35:38;60.60;;;34.65;;
40745;SDS011;26454;51.164;4.488;2023-01-29T05:38:04;75.25;;;32.72;;
40745;SDS011;26454;51.164;4.488;2023-01-29T05:40:30;58.67;;;34.38;;
40745;SDS011;26454;51.164;4.488;2023-01-29T05:42:56;56.70;;;34.75;;
40745;SDS011;26454;51.164;4.488;2023-01-29T05:45:22;56.33;;;34.00;;
40745;SDS011;26454;51.164;4.488;2023-01-29T05:47:48;62.70;;;35.25;;
40745;SDS011;26454;51.164;4.488;2023-01-29T05:50:14;57.05;;;34.50;;
40745;SDS011;26454;51.164;4.488;2023-01-29T05:52:40;62.33;;;36.00;;
40745;SDS011;26454;51.164;4.488;2023-01-29T05:55:07;61.85;;;33.60;;
40745;SDS011;26454;51.164;4.488;2023-01-29T05:57:34;63.38;;;34.55;;
40745;SDS011;26454;51.164;4.488;2023-01-29T06:00:00;59.17;;;34.90;;
40745;SDS011;26454;51.164;4.488;2023-01-29T06:02:28;62.90;;;36.13;;
40745;SDS011;26454;51.164;4.488;2023-01-29T06:04:55;62.92;;;36.25;;
40745;SDS011;26454;51.164;4.488;2023-01-29T06:07:21;58.35;;;35.10;;
40745;SDS011;26454;51.164;4.488;2023-01-29T06:09:47;59.47;;;34.80;;
40745;SDS011;26454;51.164;4.488;2023-01-29T06:12:13;62.13;;;34.10;;
40745;SDS011;26454;51.164;4.488;2023-01-29T06:14:39;57.88;;;32.80;;
40745;SDS011;26454;51.164;4.488;2023-01-29T06:17:06;55.53;;;32.85;;
40745;SDS011;26454;51.164;4.488;2023-01-29T06:19:32;58.80;;;33.80;;
40745;SDS011;26454;51.164;4.488;2023-01-29T06:21:58;58.45;;;35.75;;
40745;SDS011;26454;51.164;4.488;2023-01-29T06:24:24;66.53;;;36.45;;
40745;SDS011;26454;51.164;4.488;2023-01-29T06:26:50;56.22;;;33.20;;
40745;SDS011;26454;51.164;4.488;2023-01-29T06:29:18;57.95;;;33.83;;
40745;SDS011;26454;51.164;4.488;2023-01-29T06:31:44;58.22;;;34.55;;
40745;SDS011;26454;51.164;4.488;2023-01-29T06:34:10;57.28;;;33.50;;
40745;SDS011;26454;51.164;4.488;2023-01-29T06:36:36;61.42;;;34.47;;
40745;SDS011;26454;51.164;4.488;2023-01-29T06:39:02;66.05;;;37.20;;
40745;SDS011;26454;51.164;4.488;2023-01-29T06:41:28;59.95;;;34.25;;
40745;SDS011;26454;51.164;4.488;2023-01-29T06:43:54;63.08;;;36.38;;
40745;SDS011;26454;51.164;4.488;2023-01-29T06:46:20;62.17;;;34.55;;
40745;SDS011;26454;51.164;4.488;2023-01-29T06:48:46;58.33;;;35.50;;
40745;SDS011;26454;51.164;4.488;2023-01-29T06:51:12;65.00;;;37.75;;
40745;SDS011;26454;51.164;4.488;2023-01-29T06:53:38;63.70;;;35.72;;
40745;SDS011;26454;51.164;4.488;2023-01-29T06:56:05;64.18;;;36.38;;
40745;SDS011;26454;51.164;4.488;2023-01-29T06:58:31;64.97;;;36.03;;
40745;SDS011;26454;51.164;4.488;2023-01-29T07:03:33;69.00;;;36.30;;
40745;SDS011;26454;51.164;4.488;2023-01-29T07:05:59;65.47;;;36.13;;
40745;SDS011;26454;51.164;4.488;2023-01-29T07:08:26;65.60;;;36.50;;
40745;SDS011;26454;51.164;4.488;2023-01-29T07:10:52;67.22;;;38.08;;
40745;SDS011;26454;51.164;4.488;2023-01-29T07:13:18;65.90;;;36.85;;
40745;SDS011;26454;51.164;4.488;2023-01-29T07:15:44;62.42;;;35.45;;
40745;SDS011;26454;51.164;4.488;2023-01-29T07:18:10;69.38;;;39.47;;
40745;SDS011;26454;51.164;4.488;2023-01-29T07:20:37;72.65;;;38.30;;
40745;SDS011;26454;51.164;4.488;2023-01-29T07:23:04;66.90;;;38.10;;
40745;SDS011;26454;51.164;4.488;2023-01-29T07:25:32;63.47;;;37.67;;
40745;SDS011;26454;51.164;4.488;2023-01-29T07:27:59;63.05;;;37.13;;
40745;SDS011;26454;51.164;4.488;2023-01-29T07:30:26;63.13;;;35.40;;
40745;SDS011;26454;51.164;4.488;2023-01-29T07:32:52;62.40;;;36.30;;
40745;SDS011;26454;51.164;4.488;2023-01-29T07:35:18;60.30;;;35.47;;
40745;SDS011;26454;51.164;4.488;2023-01-29T07:37:47;66.40;;;36.33;;
40745;SDS011;26454;51.164;4.488;2023-01-29T07:40:13;66.65;;;39.20;;
40745;SDS011;26454;51.164;4.488;2023-01-29T07:42:39;64.55;;;37.15;;
40745;SDS011;26454;51.164;4.488;2023-01-29T07:45:08;60.05;;;34.75;;
40745;SDS011;26454;51.164;4.488;2023-01-29T07:47:34;62.47;;;36.40;;
40745;SDS011;26454;51.164;4.488;2023-01-29T07:50:00;59.42;;;34.78;;
40745;SDS011;26454;51.164;4.488;2023-01-29T07:52:28;58.67;;;33.20;;
40745;SDS011;26454;51.164;4.488;2023-01-29T07:54:54;62.50;;;34.78;;
40745;SDS011;26454;51.164;4.488;2023-01-29T07:57:20;59.45;;;33.35;;
40745;SDS011;26454;51.164;4.488;2023-01-29T07:59:46;55.35;;;32.88;;
40745;SDS011;26454;51.164;4.488;2023-01-29T08:02:12;60.55;;;33.53;;
40745;SDS011;26454;51.164;4.488;2023-01-29T08:04:38;60.08;;;33.92;;
40745;SDS011;26454;51.164;4.488;2023-01-29T08:07:05;62.08;;;34.33;;
40745;SDS011;26454;51.164;4.488;2023-01-29T08:09:33;57.03;;;32.83;;
40745;SDS011;26454;51.164;4.488;2023-01-29T08:11:59;59.60;;;33.75;;
40745;SDS011;26454;51.164;4.488;2023-01-29T08:14:25;60.78;;;34.05;;
40745;SDS011;26454;51.164;4.488;2023-01-29T08:16:51;57.90;;;33.08;;
40745;SDS011;26454;51.164;4.488;2023-01-29T08:19:17;57.08;;;32.72;;
40745;SDS011;26454;51.164;4.488;2023-01-29T08:21:43;61.65;;;33.08;;
40745;SDS011;26454;51.164;4.488;2023-01-29T08:24:09;53.80;;;32.15;;
40745;SDS011;26454;51.164;4.488;2023-01-29T08:26:35;53.08;;;31.50;;
40745;SDS011;26454;51.164;4.488;2023-01-29T08:29:01;53.95;;;32.25;;
40745;SDS011;26454;51.164;4.488;2023-01-29T08:31:27;54.95;;;31.75;;
40745;SDS011;26454;51.164;4.488;2023-01-29T08:33:53;54.63;;;32.38;;
40745;SDS011;26454;51.164;4.488;2023-01-29T08:36:19;53.28;;;30.38;;
40745;SDS011;26454;51.164;4.488;2023-01-29T08:38:46;51.92;;;30.45;;
40745;SDS011;26454;51.164;4.488;2023-01-29T08:41:12;53.25;;;30.52;;
40745;SDS011;26454;51.164;4.488;2023-01-29T08:43:38;50.60;;;30.48;;
40745;SDS011;26454;51.164;4.488;2023-01-29T08:46:04;55.38;;;32.38;;
40745;SDS011;26454;51.164;4.488;2023-01-29T08:48:31;52.35;;;29.75;;
40745;SDS011;26454;51.164;4.488;2023-01-29T08:50:58;55.17;;;32.65;;
40745;SDS011;26454;51.164;4.488;2023-01-29T08:53:24;47.78;;;28.65;;
40745;SDS011;26454;51.164;4.488;2023-01-29T08:55:50;42.83;;;27.58;;
40745;SDS011;26454;51.164;4.488;2023-01-29T08:58:17;47.97;;;28.92;;
40745;SDS011;26454;51.164;4.488;2023-01-29T09:00:43;50.97;;;30.08;;
40745;SDS011;26454;51.164;4.488;2023-01-29T09:03:10;50.78;;;30.30;;
40745;SDS011;26454;51.164;4.488;2023-01-29T09:05:37;51.10;;;29.38;;
40745;SDS011;26454;51.164;4.488;2023-01-29T09:08:03;51.42;;;29.42;;
40745;SDS011;26454;51.164;4.488;2023-01-29T09:10:30;49.22;;;30.00;;
40745;SDS011;26454;51.164;4.488;2023-01-29T09:12:56;47.17;;;27.65;;
40745;SDS011;26454;51.164;4.488;2023-01-29T09:15:22;50.50;;;29.42;;
40745;SDS011;26454;51.164;4.488;2023-01-29T09:17:49;48.80;;;29.40;;
40745;SDS011;26454;51.164;4.488;2023-01-29T09:20:15;51.42;;;29.45;;
40745;SDS011;26454;51.164;4.488;2023-01-29T09:22:41;50.30;;;29.40;;
40745;SDS011;26454;51.164;4.488;2023-01-29T09:25:07;48.40;;;28.05;;
40745;SDS011;26454;51.164;4.488;2023-01-29T09:27:34;45.95;;;27.70;;
40745;SDS011;26454;51.164;4.488;2023-01-29T09:30:00;46.90;;;27.50;;
40745;SDS011;26454;51.164;4.488;2023-01-29T09:32:27;44.22;;;28.27;;
40745;SDS011;26454;51.164;4.488;2023-01-29T09:34:55;53.85;;;29.02;;
40745;SDS011;26454;51.164;4.488;2023-01-29T09:37:21;45.35;;;27.63;;
40745;SDS011;26454;51.164;4.488;2023-01-29T09:39:48;50.03;;;28.60;;
40745;SDS011;26454;51.164;4.488;2023-01-29T09:42:20;49.63;;;28.80;;
40745;SDS011;26454;51.164;4.488;2023-01-29T09:47:25;55.25;;;31.77;;
40745;SDS011;26454;51.164;4.488;2023-01-29T09:49:54;48.08;;;29.13;;
40745;SDS011;26454;51.164;4.488;2023-01-29T09:52:24;51.33;;;29.92;;
40745;SDS011;26454;51.164;4.488;2023-01-29T09:57:28;54.42;;;29.77;;
40745;SDS011;26454;51.164;4.488;2023-01-29T09:59:55;45.20;;;27.00;;
40745;SDS011;26454;51.164;4.488;2023-01-29T10:02:32;47.85;;;29.30;;
40745;SDS011;26454;51.164;4.488;2023-01-29T10:07:43;51.15;;;29.98;;
40745;SDS011;26454;51.164;4.488;2023-01-29T10:12:59;43.92;;;28.15;;
40745;SDS011;26454;51.164;4.488;2023-01-29T10:15:33;47.90;;;28.60;;
40745;SDS011;26454;51.164;4.488;2023-01-29T10:23:17;52.33;;;32.63;;
40745;SDS011;26454;51.164;4.488;2023-01-29T10:25:46;55.50;;;31.90;;
40745;SDS011;26454;51.164;4.488;2023-01-29T10:28:17;57.42;;;32.17;;
40745;SDS011;26454;51.164;4.488;2023-01-29T10:30:46;49.90;;;30.05;;
40745;SDS011;26454;51.164;4.488;2023-01-29T10:33:16;52.75;;;31.27;;
40745;SDS011;26454;51.164;4.488;2023-01-29T10:35:45;49.63;;;31.33;;
40745;SDS011;26454;51.164;4.488;2023-01-29T10:40:52;53.05;;;32.15;;
40745;SDS011;26454;51.164;4.488;2023-01-29T10:43:28;50.85;;;31.67;;
40745;SDS011;26454;51.164;4.488;2023-01-29T10:46:03;49.90;;;31.20;;
40745;SDS011;26454;51.164;4.488;2023-01-29T10:51:25;52.78;;;31.55;;
40745;SDS011;26454;51.164;4.488;2023-01-29T10:53:58;47.95;;;30.25;;
40745;SDS011;26454;51.164;4.488;2023-01-29T11:01:50;52.58;;;31.63;;
40745;SDS011;26454;51.164;4.488;2023-01-29T11:04:16;52.42;;;31.55;;
40745;SDS011;26454;51.164;4.488;2023-01-29T11:06:42;50.42;;;32.13;;
40745;SDS011;26454;51.164;4.488;2023-01-29T11:09:15;53.72;;;31.45;;
40745;SDS011;26454;51.164;4.488;2023-01-29T11:11:45;52.40;;;30.70;;
40745;SDS011;26454;51.164;4.488;2023-01-29T11:14:15;48.40;;;29.40;;
40745;SDS011;26454;51.164;4.488;2023-01-29T11:16:44;50.05;;;30.38;;
40745;SDS011;26454;51.164;4.488;2023-01-29T11:19:11;47.42;;;30.70;;
40745;SDS011;26454;51.164;4.488;2023-01-29T11:24:13;44.85;;;28.00;;
40745;SDS011;26454;51.164;4.488;2023-01-29T11:26:41;45.38;;;28.90;;
40745;SDS011;26454;51.164;4.488;2023-01-29T11:31:45;51.63;;;28.98;;
40745;SDS011;26454;51.164;4.488;2023-01-29T11:34:12;42.75;;;26.17;;
40745;SDS011;26454;51.164;4.488;2023-01-29T11:41:49;48.40;;;28.52;;
40745;SDS011;26454;51.164;4.488;2023-01-29T11:46:53;43.83;;;28.65;;
40745;SDS011;26454;51.164;4.488;2023-01-29T11:49:30;49.60;;;28.13;;
40745;SDS011;26454;51.164;4.488;2023-01-29T11:51:57;48.78;;;28.20;;
40745;SDS011;26454;51.164;4.488;2023-01-29T11:54:27;41.97;;;27.20;;
40745;SDS011;26454;51.164;4.488;2023-01-29T11:56:54;50.67;;;30.75;;
40745;SDS011;26454;51.164;4.488;2023-01-29T11:59:26;48.42;;;28.38;;
40745;SDS011;26454;51.164;4.488;2023-01-29T12:01:53;47.65;;;27.40;;
40745;SDS011;26454;51.164;4.488;2023-01-29T12:04:22;43.60;;;26.95;;
40745;SDS011;26454;51.164;4.488;2023-01-29T12:06:49;40.88;;;26.98;;
40745;SDS011;26454;51.164;4.488;2023-01-29T12:09:18;46.13;;;28.02;;
40745;SDS011;26454;51.164;4.488;2023-01-29T12:11:44;36.95;;;25.65;;
40745;SDS011;26454;51.164;4.488;2023-01-29T12:16:52;41.78;;;25.52;;
40745;SDS011;26454;51.164;4.488;2023-01-29T12:19:28;40.25;;;26.05;;
40745;SDS011;26454;51.164;4.488;2023-01-29T12:21:58;41.53;;;26.65;;
40745;SDS011;26454;51.164;4.488;2023-01-29T12:24:30;38.13;;;25.02;;
40745;SDS011;26454;51.164;4.488;2023-01-29T12:27:02;41.38;;;24.13;;
40745;SDS011;26454;51.164;4.488;2023-01-29T12:32:18;38.13;;;24.77;;
40745;SDS011;26454;51.164;4.488;2023-01-29T12:34:51;43.17;;;23.60;;
40745;SDS011;26454;51.164;4.488;2023-01-29T12:37:20;34.60;;;23.52;;
40745;SDS011;26454;51.164;4.488;2023-01-29T12:39:47;40.47;;;25.08;;
40745;SDS011;26454;51.164;4.488;2023-01-29T12:42:21;34.95;;;22.85;;
40745;SDS011;26454;51.164;4.488;2023-01-29T12:47:26;34.65;;;23.05;;
40745;SDS011;26454;51.164;4.488;2023-01-29T12:49:55;46.05;;;23.50;;
40745;SDS011;26454;51.164;4.488;2023-01-29T12:52:28;38.97;;;23.80;;
40745;SDS011;26454;51.164;4.488;2023-01-29T12:55:00;34.22;;;22.27;;
40745;SDS011;26454;51.164;4.488;2023-01-29T12:57:31;30.10;;;19.90;;
40745;SDS011;26454;51.164;4.488;2023-01-29T13:00:02;32.10;;;20.80;;
40745;SDS011;26454;51.164;4.488;2023-01-29T13:02:33;37.83;;;21.55;;
40745;SDS011;26454;51.164;4.488;2023-01-29T13:07:28;34.88;;;21.10;;
40745;SDS011;26454;51.164;4.488;2023-01-29T13:09:56;35.40;;;22.05;;
40745;SDS011;26454;51.164;4.488;2023-01-29T13:14:56;34.30;;;23.20;;
40745;SDS011;26454;51.164;4.488;2023-01-29T13:17:26;33.58;;;22.13;;
40745;SDS011;26454;51.164;4.488;2023-01-29T13:19:59;32.38;;;21.38;;
40745;SDS011;26454;51.164;4.488;2023-01-29T13:22:27;37.45;;;21.48;;
40745;SDS011;26454;51.164;4.488;2023-01-29T13:24:54;35.05;;;21.65;;
40745;SDS011;26454;51.164;4.488;2023-01-29T13:27:22;34.00;;;21.85;;
40745;SDS011;26454;51.164;4.488;2023-01-29T13:29:49;34.23;;;22.70;;
40745;SDS011;26454;51.164;4.488;2023-01-29T13:32:19;29.73;;;21.50;;
40745;SDS011;26454;51.164;4.488;2023-01-29T13:34:46;29.95;;;20.17;;
40745;SDS011;26454;51.164;4.488;2023-01-29T13:39:52;31.85;;;20.33;;
40745;SDS011;26454;51.164;4.488;2023-01-29T13:42:20;30.55;;;20.98;;
40745;SDS011;26454;51.164;4.488;2023-01-29T13:44:54;29.42;;;20.88;;
40745;SDS011;26454;51.164;4.488;2023-01-29T13:47:25;32.88;;;22.98;;
40745;SDS011;26454;51.164;4.488;2023-01-29T13:49:55;31.52;;;20.20;;
40745;SDS011;26454;51.164;4.488;2023-01-29T13:52:27;33.15;;;21.33;;
40745;SDS011;26454;51.164;4.488;2023-01-29T13:54:57;33.03;;;21.08;;
40745;SDS011;26454;51.164;4.488;2023-01-29T13:57:33;35.00;;;22.50;;
40745;SDS011;26454;51.164;4.488;2023-01-29T13:59:59;30.75;;;19.75;;
40745;SDS011;26454;51.164;4.488;2023-01-29T14:02:26;32.30;;;20.50;;
40745;SDS011;26454;51.164;4.488;2023-01-29T14:10:12;34.13;;;20.25;;
40745;SDS011;26454;51.164;4.488;2023-01-29T14:12:39;29.60;;;19.85;;
40745;SDS011;26454;51.164;4.488;2023-01-29T14:15:14;28.73;;;20.45;;
40745;SDS011;26454;51.164;4.488;2023-01-29T14:17:52;33.20;;;21.75;;
40745;SDS011;26454;51.164;4.488;2023-01-29T14:20:20;28.88;;;20.52;;
40745;SDS011;26454;51.164;4.488;2023-01-29T14:25:15;35.15;;;21.13;;
40745;SDS011;26454;51.164;4.488;2023-01-29T14:27:50;36.60;;;21.85;;
40745;SDS011;26454;51.164;4.488;2023-01-29T14:30:17;34.13;;;22.15;;
40745;SDS011;26454;51.164;4.488;2023-01-29T14:32:45;32.78;;;20.90;;
40745;SDS011;26454;51.164;4.488;2023-01-29T14:35:21;31.58;;;20.17;;
40745;SDS011;26454;51.164;4.488;2023-01-29T14:37:52;32.35;;;21.48;;
40745;SDS011;26454;51.164;4.488;2023-01-29T14:40:23;31.50;;;20.40;;
40745;SDS011;26454;51.164;4.488;2023-01-29T14:42:57;29.73;;;21.23;;
40745;SDS011;26454;51.164;4.488;2023-01-29T14:48:03;33.80;;;21.20;;
40745;SDS011;26454;51.164;4.488;2023-01-29T14:50:38;29.20;;;19.60;;
40745;SDS011;26454;51.164;4.488;2023-01-29T14:53:13;32.28;;;20.70;;
40745;SDS011;26454;51.164;4.488;2023-01-29T14:55:48;28.17;;;19.30;;
40745;SDS011;26454;51.164;4.488;2023-01-29T14:58:17;32.95;;;21.50;;
40745;SDS011;26454;51.164;4.488;2023-01-29T15:00:44;31.95;;;19.80;;
40745;SDS011;26454;51.164;4.488;2023-01-29T15:03:17;32.00;;;20.90;;
40745;SDS011;26454;51.164;4.488;2023-01-29T15:05:44;33.40;;;21.45;;
40745;SDS011;26454;51.164;4.488;2023-01-29T15:08:16;31.17;;;20.67;;
40745;SDS011;26454;51.164;4.488;2023-01-29T15:10:45;32.00;;;22.63;;
40745;SDS011;26454;51.164;4.488;2023-01-29T15:13:17;31.98;;;20.50;;
40745;SDS011;26454;51.164;4.488;2023-01-29T15:15:46;30.85;;;20.02;;
40745;SDS011;26454;51.164;4.488;2023-01-29T15:18:22;34.25;;;20.98;;
40745;SDS011;26454;51.164;4.488;2023-01-29T15:21:02;32.45;;;22.08;;
40745;SDS011;26454;51.164;4.488;2023-01-29T15:23:30;31.58;;;21.88;;
40745;SDS011;26454;51.164;4.488;2023-01-29T15:25:58;32.22;;;20.90;;
40745;SDS011;26454;51.164;4.488;2023-01-29T15:28:27;33.58;;;21.70;;
40745;SDS011;26454;51.164;4.488;2023-01-29T15:30:55;35.83;;;22.88;;
40745;SDS011;26454;51.164;4.488;2023-01-29T15:33:23;34.67;;;22.13;;
40745;SDS011;26454;51.164;4.488;2023-01-29T15:35:49;33.55;;;22.33;;
40745;SDS011;26454;51.164;4.488;2023-01-29T15:38:21;35.28;;;22.48;;
40745;SDS011;26454;51.164;4.488;2023-01-29T15:40:55;40.33;;;22.58;;
40745;SDS011;26454;51.164;4.488;2023-01-29T15:43:26;36.67;;;22.60;;
40745;SDS011;26454;51.164;4.488;2023-01-29T15:45:53;39.05;;;23.20;;
40745;SDS011;26454;51.164;4.488;2023-01-29T15:48:20;33.90;;;22.52;;
40745;SDS011;26454;51.164;4.488;2023-01-29T15:50:50;34.97;;;21.95;;
40745;SDS011;26454;51.164;4.488;2023-01-29T15:53:18;35.20;;;22.42;;
40745;SDS011;26454;51.164;4.488;2023-01-29T15:55:45;37.15;;;22.98;;
40745;SDS011;26454;51.164;4.488;2023-01-29T15:58:14;31.45;;;22.52;;
40745;SDS011;26454;51.164;4.488;2023-01-29T16:00:46;38.05;;;23.65;;
40745;SDS011;26454;51.164;4.488;2023-01-29T16:03:14;36.35;;;23.00;;